Fruitland, Maryland
Current Conditions -  °F | °C
As of 4:54 PM on Monday 22 Dec 2014 (Local Time) from KSBY Reporting Station
Light Rain Light Rain  
Wind Chill: 40°   Ceiling: 500
Heat Index: 45°   Visibility: 4mi
Dew Point: 42°   Wind: 10mph
Humidity: 90%   Direction: 50°NE
Pressure: 30.1"   Gusts: NA
Location:  38.32°N, 75.62°W
Report Text: KSBY 222154Z 05009KT 4SM -RA BR OVC005 07/06 A3010 RMK AO2 RAB25 SLP194 P0000 T00720056
Loading
Personal Weather Stations






























Interactive Weather Map New forecast layout! Learn more

10-Day Weather Forecast

Advertisements
Track Severe Weather on mobile